Aviation Digital Data Service (ADDS)

Output produced by METARs form (2230 UTC 28 July 2014)
found at http://aviationweather.gov/adds/metars/
 
KMHT 282201Z 2822/2918 24008KT P6SM -TSRA FEW018CB BKN050 OVC090 
     TEMPO 2822/2823 1SM +TSRA BKN030CB OVC050 
     FM282300 20008KT P6SM BKN040 
     FM290300 23005KT 3SM BR BKN090 
     FM290900 27006KT 6SM BR BKN050 
     FM291100 29006KT P6SM SCT080